Orbital elements of SACI 1
| Launched | 13 October 1999 |
| Flight ended | – |
| Launch site | Taiyuan Space Center, PRC |
| Owner | Brazil |
| NORAD ID | 25941 |
| Date fetched |
Epoch osculation |
Inc. [°] |
Ecc. | RA asc node [hr] |
Arg Peri. [°] |
Mean anom [°] |
Mean motion [rev/day] |
Abs. mag |
| Date fetched |
Epoch osculation |
Inc. [°] |
Ecc. | RA asc node [hr] |
Arg Peri. [°] |
Mean anom [°] |
Mean motion [rev/day] |
Abs. mag |
| 2026 May 03 17:57 | 2026 Apr 30 14:29:02 | 98.6400 | 0.00095 | 11.1675 | 85.8371 | 274.3914 | 14.54866 | – |
| 2026 May 02 17:57 | 2026 Apr 30 14:29:02 | 98.6400 | 0.00095 | 11.1675 | 85.8371 | 274.3914 | 14.54866 | – |
| 2026 May 01 17:56 | 2026 Apr 30 14:29:02 | 98.6400 | 0.00095 | 11.1675 | 85.8371 | 274.3914 | 14.54866 | – |
| 2026 Apr 30 17:56 | 2026 Apr 30 14:29:02 | 98.6400 | 0.00095 | 11.1675 | 85.8371 | 274.3914 | 14.54866 | – |
| 2026 Apr 29 17:57 | 2026 Apr 24 01:40:36 | 98.6408 | 0.00095 | 10.7174 | 103.2169 | 274.3914 | 14.54866 | – |
| 2026 Apr 28 17:56 | 2026 Apr 24 01:40:36 | 98.6408 | 0.00095 | 10.7174 | 103.2169 | 274.3914 | 14.54866 | – |
| 2026 Apr 27 17:58 | 2026 Apr 24 01:40:36 | 98.6408 | 0.00095 | 10.7174 | 103.2169 | 274.3914 | 14.54866 | – |
| 2026 Apr 26 17:58 | 2026 Apr 24 01:40:36 | 98.6408 | 0.00095 | 10.7174 | 103.2169 | 274.3914 | 14.54866 | – |
| 2026 Apr 25 17:58 | 2026 Apr 24 01:40:36 | 98.6408 | 0.00095 | 10.7174 | 103.2169 | 274.3914 | 14.54866 | – |
| 2026 Apr 24 17:59 | 2026 Apr 24 01:40:36 | 98.6408 | 0.00095 | 10.7174 | 103.2169 | 274.3914 | 14.54866 | – |
| 2026 Apr 23 17:57 | 2026 Apr 19 12:44:12 | 98.6418 | 0.00095 | 10.4046 | 115.3581 | 274.3914 | 14.54866 | – |
| 2026 Apr 22 17:57 | 2026 Apr 19 12:44:12 | 98.6418 | 0.00095 | 10.4046 | 115.3581 | 274.3914 | 14.54866 | – |
| 2026 Apr 21 17:57 | 2026 Apr 19 12:44:12 | 98.6418 | 0.00095 | 10.4046 | 115.3581 | 274.3914 | 14.54866 | – |
| 2026 Apr 20 17:57 | 2026 Apr 19 12:44:12 | 98.6418 | 0.00095 | 10.4046 | 115.3581 | 274.3914 | 14.54866 | – |
| 2026 Apr 19 17:58 | 2026 Apr 19 12:44:12 | 98.6418 | 0.00095 | 10.4046 | 115.3581 | 274.3914 | 14.54866 | – |
| 2026 Apr 18 17:56 | 2026 Apr 13 01:34:44 | 98.6428 | 0.00093 | 9.9591 | 132.8817 | 274.3914 | 14.54866 | – |
| 2026 Apr 16 17:57 | 2026 Apr 13 01:34:44 | 98.6428 | 0.00093 | 9.9591 | 132.8817 | 274.3914 | 14.54866 | – |
| 2026 Apr 14 17:57 | 2026 Apr 13 01:34:44 | 98.6428 | 0.00093 | 9.9591 | 132.8817 | 274.3914 | 14.54866 | – |
| 2026 Apr 13 17:57 | 2026 Apr 13 01:34:44 | 98.6428 | 0.00093 | 9.9591 | 132.8817 | 274.3914 | 14.54866 | – |
| 2026 Apr 12 17:57 | 2026 Apr 08 14:17:20 | 98.6437 | 0.00091 | 9.6511 | 145.1886 | 274.3914 | 14.54866 | – |
| 2026 Apr 11 17:57 | 2026 Apr 08 14:17:20 | 98.6437 | 0.00091 | 9.6511 | 145.1886 | 274.3914 | 14.54866 | – |
| 2026 Apr 10 17:58 | 2026 Apr 08 14:17:20 | 98.6437 | 0.00091 | 9.6511 | 145.1886 | 274.3914 | 14.54866 | – |
| 2026 Apr 09 18:01 | 2026 Apr 08 14:17:20 | 98.6437 | 0.00091 | 9.6511 | 145.1886 | 274.3914 | 14.54866 | – |
| 2026 Apr 08 17:57 | 2026 Apr 08 14:17:20 | 98.6437 | 0.00091 | 9.6511 | 145.1886 | 274.3914 | 14.54866 | – |
| 2026 Apr 07 17:57 | 2026 Apr 02 08:04:56 | 98.6446 | 0.00087 | 9.2197 | 162.9657 | 274.3914 | 14.54866 | – |
| 2026 Apr 06 17:57 | 2026 Apr 02 08:04:56 | 98.6446 | 0.00087 | 9.2197 | 162.9657 | 274.3914 | 14.54866 | – |